METAR
METAR

METAR

METAR EPSY 241500Z 30008KT 270V330 CAVOK 14/05 Q1019=
TAF AMD EPSY 241500Z 2415/2424 CNL=
Ostrzeżenia
Ostrzeżenia

Ostrzeżenia

OSTRZEZENIE LOTNISKOWE DLA LOTNISKA SZYMANY WAZNOSC OD: 12:00 24-05-2020 UTC DO: 18:00 24-05-2020 UTC ZJAWISKO: BURZA, PORYWY WIATRU. PRZEBIEG:NA LOTNISKU EPSY ORAZ W REJONIE LOTNISKA PROGNOZUJE SIE BURZE ORAZ SILNY WIATR Z KIERUNKU 300-330ST. PREDKOSC 10-15 KT, PORYWY WIATRU DO 30KT. OPRACOWAL: DAWID WOJCIECHOWSKI DNIA 24-05-2020 11:13 UTC NR OSTRZEZENIE: 158/2020.